Latest Weather Observations for Sydney Olympic Park

IDN60801

Issued at 10:03 pm EDT Saturday 25 January 2020 (issued every 10 minutes, with the page automatically refreshed every 10 minutes)

About weather observations | Map of weather stations | Latest weather observations for NSW | Other Formats
Station Details ID: 066212 Name: SYDNEY OLYMPIC PARK AWS (ARCHERY CENTRE) Lat: -33.83 Lon: 151.07 Height: 4.0 m
Data from the previous 72 hours. | See also: Recent months at Sydney Olympic Park
Date/Time
EDT
Temp
°C
App
Temp
°C
Dew
Point
°C
Rel
Hum
%
Delta-T
°C
Wind Press
QNH
hPa
Press
MSL
hPa
Rain since
9am
mm
Dir  Spd
km/h
Gust
km/h
Spd
kts
Gust
kts
25/10:00pm 25.9 31.1 22.8 83 2.1 CALM 0 0 0 0 - - 0.0
25/09:30pm 25.7 30.1 22.8 84 2.0 N 4 11 2 6 - - 0.0
25/09:00pm 25.9 29.9 22.8 83 2.1 ENE 6 9 3 5 - - 0.0
25/08:30pm 26.3 30.7 22.8 81 2.4 ENE 4 9 2 5 - - 0.0
25/08:00pm 26.5 30.4 22.6 79 2.6 ENE 6 11 3 6 - - 0.0
25/07:30pm 26.4 29.2 22.3 78 2.8 ENE 11 17 6 9 - - 0.0
25/07:00pm 26.7 29.2 22.5 78 2.8 E 13 19 7 10 - - 0.0
25/06:30pm 27.1 29.7 22.7 77 3.0 E 13 19 7 10 - - 0.0
25/06:00pm 27.5 30.7 23.1 77 3.0 E 11 17 6 9 - - 0.0
25/05:30pm 27.4 30.0 22.6 75 3.2 ESE 13 22 7 12 - - 0.0
25/05:00pm 27.2 30.1 22.4 75 3.2 ENE 11 20 6 11 - - 0.0
25/04:30pm 27.2 29.0 21.9 73 3.6 E 15 22 8 12 - - 0.0
25/04:00pm 27.8 29.5 21.6 69 4.1 E 15 26 8 14 - - 0.0
25/03:30pm 28.7 31.1 22.2 68 4.4 E 13 24 7 13 - - 0.0
25/03:00pm 28.5 29.7 21.5 66 4.7 E 17 24 9 13 - - 0.0
25/02:30pm 28.9 31.6 21.4 64 5.0 ENE 9 17 5 9 - - 0.0
25/02:00pm 28.3 30.7 20.8 63 5.0 NE 9 19 5 10 - - 0.0
25/01:30pm 28.0 29.1 21.3 67 4.5 ESE 17 24 9 13 - - 0.0
25/01:00pm 27.9 28.3 21.0 66 4.6 ESE 20 30 11 16 - - 0.0
25/12:30pm 28.4 29.5 20.4 62 5.3 ESE 15 22 8 12 - - 0.0
25/12:00pm 28.8 29.9 20.5 61 5.5 ESE 15 20 8 11 - - 0.0
25/11:30am 28.0 29.2 20.6 64 4.9 ESE 15 20 8 11 - - 0.0
25/11:00am 28.0 29.8 18.7 57 6.0 E 7 15 4 8 - - 0.0
25/10:30am 27.8 29.7 19.8 61 5.2 ESE 9 15 5 8 - - 0.0
25/10:00am 26.9 28.6 19.3 63 4.9 E 9 20 5 11 - - 0.0
25/09:30am 26.2 28.3 20.1 69 4.0 E 9 15 5 8 - - 0.0
25/09:00am 25.3 27.2 20.5 75 3.1 E 11 17 6 9 - - 4.0
25/08:30am 24.8 27.2 20.1 75 3.0 ENE 7 15 4 8 - - 4.0
25/08:00am 24.3 26.8 19.8 76 2.9 E 6 9 3 5 - - 4.0
25/07:30am 24.0 26.0 19.9 78 2.6 E 9 13 5 7 - - 4.0
25/07:00am 23.6 26.2 20.1 81 2.3 ESE 6 9 3 5 - - 4.0
25/06:30am 23.7 24.5 19.8 79 2.5 E 15 20 8 11 - - 4.0
25/06:00am 23.7 25.7 20.0 80 2.4 E 9 15 5 8 - - 4.0
25/05:30am 23.7 25.0 20.2 81 2.3 E 13 19 7 10 - - 4.0
25/05:00am 23.6 25.3 20.1 81 2.3 ESE 11 20 6 11 - - 4.0
25/04:30am 23.8 25.2 20.3 81 2.3 E 13 17 7 9 - - 4.0
25/04:00am 23.6 25.8 20.5 83 2.0 ESE 9 15 5 8 - - 4.0
25/03:30am 23.6 25.8 20.5 83 2.0 ESE 9 13 5 7 - - 4.0
25/03:00am 23.6 25.4 20.3 82 2.1 E 11 20 6 11 - - 4.0
25/02:30am 23.7 26.1 20.8 84 1.9 E 9 13 5 7 - - 4.0
25/02:00am 23.6 25.7 20.9 85 1.8 E 11 15 6 8 - - 4.0
25/01:30am 23.7 25.4 21.6 88 1.4 E 15 20 8 11 - - 4.0
25/01:00am 22.9 27.7 22.9 100 0.0 ESE 2 9 1 5 - - 4.0
25/12:30am 22.7 27.8 22.7 100 0.0 CALM 0 0 0 0 - - 4.0
25/12:00am 22.6 27.7 22.6 100 0.0 CALM 0 0 0 0 - - 4.0
 
Date/Time
EDT
Temp
°C
App
Temp
°C
Dew
Point
°C
Rel
Hum
%
Delta-T
°C
Wind Press
QNH
hPa
Press
MSL
hPa
Rain since
9am
mm
Dir  Spd
km/h
Gust
km/h
Spd
kts
Gust
kts
24/11:30pm 22.6 25.9 22.6 100 0.0 ESE 9 11 5 6 - - 4.0
24/11:20pm 22.5 26.2 22.5 100 0.0 ESE 7 11 4 6 - - 4.0
24/11:00pm 22.4 25.6 22.4 100 0.0 SE 9 15 5 8 - - 3.6
24/10:58pm 22.4 25.6 22.4 100 0.0 SE 9 15 5 8 - - 3.6
24/10:30pm 23.0 25.4 22.2 95 0.5 ESE 13 19 7 10 - - 2.4
24/10:00pm 24.4 25.8 20.3 78 2.7 ESE 13 22 7 12 - - 2.4
24/09:30pm 24.6 25.2 20.3 77 2.8 ESE 17 26 9 14 - - 2.4
24/09:00pm 24.9 25.6 20.4 76 2.9 ESE 17 24 9 13 - - 2.4
24/08:30pm 24.9 25.7 20.6 77 2.8 E 17 24 9 13 - - 2.4
24/08:00pm 24.6 25.2 20.3 77 2.8 E 17 26 9 14 - - 2.4
24/07:30pm 25.0 25.1 20.0 74 3.2 ESE 19 26 10 14 - - 2.4
24/07:00pm 25.4 26.1 20.4 74 3.3 E 17 24 9 13 - - 2.4
24/06:30pm 25.4 26.0 20.2 73 3.4 E 17 28 9 15 - - 2.4
24/06:00pm 25.4 25.6 20.2 73 3.4 ESE 19 28 10 15 - - 2.4
24/05:30pm 26.3 26.4 19.9 68 4.2 E 19 28 10 15 - - 2.4
24/05:00pm 26.5 27.0 20.1 68 4.2 E 17 26 9 14 - - 2.4
24/04:30pm 26.6 26.5 20.0 67 4.3 ESE 20 30 11 16 - - 2.4
24/04:00pm 26.8 26.1 18.6 60 5.2 ESE 20 28 11 15 - - 2.4
24/03:30pm 27.0 27.9 18.3 59 5.5 ESE 11 17 6 9 - - 2.4
24/03:00pm 25.9 26.4 17.5 59 5.3 ESE 11 19 6 10 - - 2.4
24/02:30pm 25.3 26.2 17.5 62 4.9 SE 9 15 5 8 - - 2.4
24/02:00pm 25.1 26.2 18.1 65 4.4 SE 9 13 5 7 - - 2.4
24/01:30pm 25.0 26.3 17.5 63 4.7 SSE 7 11 4 6 - - 2.4
24/01:21pm 24.7 25.7 16.4 60 5.1 S 6 11 3 6 - - 2.4
24/01:00pm 24.3 24.6 16.0 60 5.0 SSW 9 13 5 7 - - 2.4
24/12:30pm 24.5 24.2 16.5 61 4.9 S 13 20 7 11 - - 2.4
24/12:00pm 24.4 23.4 15.6 58 5.3 SSW 15 24 8 13 - - 2.4
24/11:46am 25.0 27.1 18.9 69 3.9 SW 6 15 3 8 - - 2.4
24/11:30am 24.2 26.4 19.3 74 3.1 SSW 6 9 3 5 - - 2.4
24/11:00am 23.3 25.7 19.7 80 2.3 S 6 9 3 5 - - 2.4
24/10:30am 22.8 26.0 21.3 91 1.0 SE 6 7 3 4 - - 2.4
24/10:21am 22.5 25.4 21.1 92 0.9 SE 7 11 4 6 - - 2.4
24/10:00am 22.1 22.9 19.1 83 1.9 S 13 22 7 12 - - 2.0
24/09:53am 22.8 23.7 19.2 80 2.3 S 13 22 7 12 - - 0.8
24/09:30am 23.3 23.4 19.2 78 2.6 SSE 17 24 9 13 - - 0.0
24/09:00am 22.0 23.8 19.5 86 1.6 SSE 9 11 5 6 - - 0.8
24/08:31am 23.1 23.0 17.8 72 3.3 SSE 15 26 8 14 - - 0.2
24/08:30am 23.3 22.8 17.7 71 3.5 SSE 17 26 9 14 - - 0.0
24/08:00am 24.1 23.9 17.6 67 4.0 SSE 15 22 8 12 - - 0.0
24/07:30am 24.5 24.5 18.0 67 4.1 SE 15 24 8 13 - - 0.0
24/07:00am 24.5 25.0 18.4 69 3.9 SE 13 19 7 10 - - 0.0
24/06:40am 24.3 24.6 18.0 68 4.0 SE 13 22 7 12 - - 0.0
24/06:30am 24.3 23.5 18.0 68 4.0 SE 19 33 10 18 - - 0.0
24/06:06am 24.5 23.8 18.2 68 4.0 SE 19 32 10 17 - - 0.0
24/06:00am 24.6 23.8 18.1 67 4.1 SE 19 28 10 15 - - 0.0
24/05:30am 24.9 25.2 18.8 69 3.9 ESE 15 22 8 12 - - 0.0
24/05:00am 25.6 24.6 17.5 61 5.1 SE 19 30 10 16 - - 0.0
24/04:30am 26.5 26.2 16.4 53 6.2 SE 13 19 7 10 - - 0.0
24/04:00am 27.2 26.8 16.2 51 6.8 SE 13 20 7 11 - - 0.0
24/03:30am 28.7 31.0 19.9 59 5.8 SW 7 13 4 7 - - 0.0
24/03:00am 27.8 30.8 20.9 66 4.6 WNW 6 9 3 5 - - 0.0
24/02:30am 28.5 30.9 20.8 63 5.1 WNW 9 13 5 7 - - 0.0
24/02:00am 29.0 31.3 20.7 61 5.5 NW 9 15 5 8 - - 0.0
24/01:30am 29.5 30.7 20.6 58 5.9 NW 15 26 8 14 - - 0.0
24/01:00am 29.7 30.8 20.5 57 6.1 NW 15 24 8 13 - - 0.0
24/12:30am 29.9 30.2 20.5 57 6.2 NNW 19 33 10 18 - - 0.0
24/12:00am 30.3 29.9 20.2 54 6.7 NNW 22 39 12 21 - - 0.0
 
Date/Time
EDT
Temp
°C
App
Temp
°C
Dew
Point
°C
Rel
Hum
%
Delta-T
°C
Wind Press
QNH
hPa
Press
MSL
hPa
Rain since
9am
mm
Dir  Spd
km/h
Gust
km/h
Spd
kts
Gust
kts
23/11:30pm 30.2 30.4 20.2 55 6.6 NNW 19 43 10 23 - - 0.0
23/11:00pm 30.9 30.9 20.2 53 7.1 N 20 33 11 18 - - 0.0
23/10:57pm 31.1 31.2 20.4 53 7.1 N 20 33 11 18 - - 0.0
23/10:35pm 32.6 32.3 19.5 46 8.6 N 20 44 11 24 - - 0.0
23/10:30pm 32.8 34.4 20.0 47 8.5 N 11 30 6 16 - - 0.0
23/10:00pm 29.7 34.3 22.4 65 5.0 E 2 9 1 5 - - 0.0
23/09:30pm 30.7 34.4 21.5 58 6.2 SSE 4 7 2 4 - - 0.0
23/09:00pm 31.2 34.1 21.1 55 6.8 SSE 7 9 4 5 - - 0.0
23/08:30pm 32.4 34.2 20.3 48 8.0 E 11 17 6 9 - - 0.0
23/08:00pm 36.1 36.7 16.8 32 12.4 SSE 9 15 5 8 - - 0.0
23/07:30pm 38.2 38.0 14.7 24 14.7 WSW 9 17 5 9 - - 0.0
23/07:00pm 38.1 36.2 15.2 25 14.4 WNW 19 30 10 16 - - 0.0
23/06:30pm 39.1 37.8 14.8 23 15.3 NW 15 30 8 16 - - 0.0
23/06:00pm 39.8 36.8 14.8 23 15.8 NNW 24 44 13 24 - - 0.0
23/05:34pm 40.4 38.6 15.9 23 15.7 NW 20 39 11 21 - - 0.0
23/05:30pm 40.3 38.7 16.5 25 15.4 NW 20 39 11 21 - - 0.0
23/05:00pm 39.8 38.0 15.4 23 15.5 NW 19 30 10 16 - - 0.0
23/04:30pm 40.1 37.5 15.0 23 15.9 NW 22 46 12 25 - - 0.0
23/04:00pm 40.8 37.2 14.2 21 16.7 NNW 26 43 14 23 - - 0.0
23/03:43pm 40.5 37.2 13.9 21 16.6 NW 24 52 13 28 - - 0.0
23/03:30pm 41.5 38.2 14.0 20 17.3 NNW 24 41 13 22 - - 0.0
23/03:00pm 41.0 39.1 15.7 22 16.2 NW 20 41 11 22 - - 0.0
23/02:30pm 41.4 39.0 15.4 22 16.6 NW 22 39 12 21 - - 0.0
23/02:00pm 41.1 37.3 13.7 20 17.1 NNW 26 41 14 22 - - 0.0
23/01:30pm 40.8 36.2 13.4 20 17.0 NW 30 61 16 33 - - 0.0
23/01:25pm 40.6 36.1 12.5 19 17.2 NNW 28 61 15 33 - - 0.0
23/01:00pm 40.5 37.3 13.2 20 16.9 NNW 22 41 12 22 - - 0.0
23/12:30pm 39.4 35.5 14.4 22 15.7 NW 28 50 15 27 - - 0.0
23/12:08pm 39.0 35.2 14.7 23 15.3 NNW 28 50 15 27 - - 0.0
23/12:00pm 39.7 36.3 14.7 23 15.7 NW 26 48 14 26 - - 0.0
23/11:30am 38.6 34.9 15.0 24 14.9 NNW 28 52 15 28 - - 0.0
23/11:28am 38.3 34.5 14.8 25 14.8 NNW 28 52 15 28 - - 0.0
23/11:00am 37.3 35.4 16.8 29 13.2 NNW 22 39 12 21 - - 0.0
23/10:30am 35.8 33.6 17.0 32 12.1 NNW 24 35 13 19 - - 0.0
23/10:00am 34.0 32.9 17.7 38 10.5 NNW 20 33 11 18 - - 0.0
23/09:30am 32.7 32.5 18.5 43 9.2 NNW 17 28 9 15 - - 0.0
23/09:00am 31.3 30.3 17.6 44 8.7 NNW 19 35 10 19 - - 0.0
23/08:30am 30.3 28.8 16.7 44 8.5 NW 20 33 11 18 - - 0.0
23/08:00am 29.3 28.5 17.2 48 7.6 NNW 17 33 9 18 - - 0.0
23/07:30am 25.8 27.0 18.2 63 4.8 NNW 9 17 5 9 - - 0.0
23/07:00am 20.7 24.1 19.4 92 0.8 CALM 0 0 0 0 - - 0.0
23/06:30am 19.3 22.5 18.8 97 0.3 CALM 0 0 0 0 - - 0.0
23/06:00am 19.1 21.9 17.9 93 0.7 CALM 0 0 0 0 - - 0.0
23/05:30am 18.7 21.3 17.5 93 0.7 CALM 0 0 0 0 - - 0.0
23/05:00am 18.6 20.4 17.3 92 0.8 WNW 4 9 2 5 - - 0.0
23/04:30am 19.0 20.6 17.0 88 1.2 N 4 9 2 5 - - 0.0
23/04:20am 18.8 21.4 17.5 92 0.8 CALM 0 0 0 0 - - 0.0
23/04:02am 19.1 21.9 17.9 93 0.7 CALM 0 0 0 0 - - 0.0
23/04:00am 19.2 22.0 18.0 93 0.7 CALM 0 0 0 0 - - 0.0
23/03:30am 19.5 21.9 16.9 85 1.6 CALM 0 0 0 0 - - 0.0
23/03:00am 19.7 22.5 18.0 90 1.0 CALM 0 0 0 0 - - 0.0
23/02:30am 20.0 22.9 18.1 89 1.2 CALM 0 0 0 0 - - 0.0
23/02:00am 20.4 23.3 18.2 87 1.4 CALM 0 0 0 0 - - 0.0
23/01:30am 20.8 23.4 17.4 81 2.1 CALM 0 0 0 0 - - 0.0
23/01:00am 21.3 24.0 17.7 80 2.2 CALM 0 0 0 0 - - 0.0
23/12:30am 21.8 24.4 17.6 77 2.6 CALM 0 0 0 0 - - 0.0
23/12:00am 22.6 25.7 18.6 78 2.5 CALM 0 0 0 0 - - 0.0
 
Date/Time
EDT
Temp
°C
App
Temp
°C
Dew
Point
°C
Rel
Hum
%
Delta-T
°C
Wind Press
QNH
hPa
Press
MSL
hPa
Rain since
9am
mm
Dir  Spd
km/h
Gust
km/h
Spd
kts
Gust
kts
22/11:30pm 23.4 26.3 18.3 73 3.2 CALM 0 0 0 0 - - 0.0
22/11:00pm 24.1 26.6 18.1 69 3.8 W 2 7 1 4 - - 0.0
22/10:30pm 25.6 28.2 17.5 61 5.1 CALM 0 6 0 3 - - 0.0

Other formats

Comma delimited format used in spreadsheet applications
http://www.bom.gov.au/fwo/IDN60801/IDN60801.95765.axf

JavaScript Object Notation format (JSON) in row-major order
http://www.bom.gov.au/fwo/IDN60801/IDN60801.95765.json

Data quality

Most of these data are generated automatically and are frequently updated. Quality checks on data are not normally performed. It is possible for incorrect values to appear. Refer to information at About Latest Weather Observations and please check the disclaimer before using these data.